sensor_id;sensor_type;location;lat;lon;timestamp;temperature;humidity
9043;DHT22;4556;49.150;8.808;2022-08-21T00:01:52;13.60;99.90
9043;DHT22;4556;49.150;8.808;2022-08-21T00:04:19;13.50;99.90
9043;DHT22;4556;49.150;8.808;2022-08-21T00:06:47;13.50;99.90
9043;DHT22;4556;49.150;8.808;2022-08-21T00:09:15;13.40;99.90
9043;DHT22;4556;49.150;8.808;2022-08-21T00:11:43;13.40;99.90
9043;DHT22;4556;49.150;8.808;2022-08-21T00:14:11;13.30;99.90
9043;DHT22;4556;49.150;8.808;2022-08-21T00:16:39;13.20;99.90
9043;DHT22;4556;49.150;8.808;2022-08-21T00:19:07;13.20;99.90
9043;DHT22;4556;49.150;8.808;2022-08-21T00:21:34;13.20;99.90
9043;DHT22;4556;49.150;8.808;2022-08-21T00:24:02;13.10;99.90
9043;DHT22;4556;49.150;8.808;2022-08-21T00:26:31;13.10;99.90
9043;DHT22;4556;49.150;8.808;2022-08-21T00:28:58;13.00;99.90
9043;DHT22;4556;49.150;8.808;2022-08-21T00:31:25;13.00;99.90
9043;DHT22;4556;49.150;8.808;2022-08-21T00:33:52;13.00;99.90
9043;DHT22;4556;49.150;8.808;2022-08-21T00:36:19;13.00;99.90
9043;DHT22;4556;49.150;8.808;2022-08-21T00:38:46;12.90;99.90
9043;DHT22;4556;49.150;8.808;2022-08-21T00:41:13;12.80;99.90
9043;DHT22;4556;49.150;8.808;2022-08-21T00:43:42;12.80;99.90
9043;DHT22;4556;49.150;8.808;2022-08-21T00:46:09;12.70;99.90
9043;DHT22;4556;49.150;8.808;2022-08-21T00:48:37;12.10;99.90
9043;DHT22;4556;49.150;8.808;2022-08-21T00:51:07;12.80;99.90
9043;DHT22;4556;49.150;8.808;2022-08-21T00:53:36;12.80;99.90
9043;DHT22;4556;49.150;8.808;2022-08-21T00:56:06;12.80;99.90
9043;DHT22;4556;49.150;8.808;2022-08-21T00:58:34;12.80;99.90
9043;DHT22;4556;49.150;8.808;2022-08-21T01:01:05;12.70;99.90
9043;DHT22;4556;49.150;8.808;2022-08-21T01:03:33;12.70;99.90
9043;DHT22;4556;49.150;8.808;2022-08-21T01:06:01;12.80;99.90
9043;DHT22;4556;49.150;8.808;2022-08-21T01:08:29;12.70;99.90
9043;DHT22;4556;49.150;8.808;2022-08-21T01:10:56;12.70;99.90
9043;DHT22;4556;49.150;8.808;2022-08-21T01:13:24;12.70;99.90
9043;DHT22;4556;49.150;8.808;2022-08-21T01:15:54;12.00;99.90
9043;DHT22;4556;49.150;8.808;2022-08-21T01:18:23;12.70;99.90
9043;DHT22;4556;49.150;8.808;2022-08-21T01:21:08;12.60;99.90
9043;DHT22;4556;49.150;8.808;2022-08-21T01:23:38;12.60;99.90
9043;DHT22;4556;49.150;8.808;2022-08-21T01:26:07;15.00;99.90
9043;DHT22;4556;49.150;8.808;2022-08-21T01:28:37;12.60;99.90
9043;DHT22;4556;49.150;8.808;2022-08-21T01:31:07;12.60;99.90
9043;DHT22;4556;49.150;8.808;2022-08-21T01:33:35;12.60;99.90
9043;DHT22;4556;49.150;8.808;2022-08-21T01:36:03;12.60;99.90
9043;DHT22;4556;49.150;8.808;2022-08-21T01:38:32;12.50;99.90
9043;DHT22;4556;49.150;8.808;2022-08-21T01:40:59;12.50;99.90
9043;DHT22;4556;49.150;8.808;2022-08-21T01:43:26;12.40;99.90
9043;DHT22;4556;49.150;8.808;2022-08-21T01:45:53;12.30;99.90
9043;DHT22;4556;49.150;8.808;2022-08-21T01:48:20;12.30;99.90
9043;DHT22;4556;49.150;8.808;2022-08-21T01:50:47;12.20;99.90
9043;DHT22;4556;49.150;8.808;2022-08-21T01:53:14;12.10;99.90
9043;DHT22;4556;49.150;8.808;2022-08-21T01:55:43;12.00;99.90
9043;DHT22;4556;49.150;8.808;2022-08-21T01:58:11;15.10;99.90
9043;DHT22;4556;49.150;8.808;2022-08-21T02:00:38;12.30;99.90
9043;DHT22;4556;49.150;8.808;2022-08-21T02:03:05;12.50;99.90
9043;DHT22;4556;49.150;8.808;2022-08-21T02:05:32;12.20;99.90
9043;DHT22;4556;49.150;8.808;2022-08-21T02:08:00;12.20;99.90
9043;DHT22;4556;49.150;8.808;2022-08-21T02:10:30;15.70;99.90
9043;DHT22;4556;49.150;8.808;2022-08-21T02:13:00;12.10;99.90
9043;DHT22;4556;49.150;8.808;2022-08-21T02:15:28;9.80;99.90
9043;DHT22;4556;49.150;8.808;2022-08-21T02:17:59;14.40;99.90
9043;DHT22;4556;49.150;8.808;2022-08-21T02:20:28;12.00;99.90
9043;DHT22;4556;49.150;8.808;2022-08-21T02:22:56;12.10;99.90
9043;DHT22;4556;49.150;8.808;2022-08-21T02:25:25;11.60;99.90
9043;DHT22;4556;49.150;8.808;2022-08-21T02:27:53;12.10;99.90
9043;DHT22;4556;49.150;8.808;2022-08-21T02:30:23;11.90;99.90
9043;DHT22;4556;49.150;8.808;2022-08-21T02:32:50;11.70;99.90
9043;DHT22;4556;49.150;8.808;2022-08-21T02:35:18;11.80;99.90
9043;DHT22;4556;49.150;8.808;2022-08-21T02:37:47;11.80;99.90
9043;DHT22;4556;49.150;8.808;2022-08-21T02:40:16;11.80;99.90
9043;DHT22;4556;49.150;8.808;2022-08-21T02:42:44;12.20;99.90
9043;DHT22;4556;49.150;8.808;2022-08-21T02:45:13;11.80;99.90
9043;DHT22;4556;49.150;8.808;2022-08-21T02:47:47;11.70;99.90
9043;DHT22;4556;49.150;8.808;2022-08-21T02:50:18;13.60;99.90
9043;DHT22;4556;49.150;8.808;2022-08-21T02:52:46;11.70;99.90
9043;DHT22;4556;49.150;8.808;2022-08-21T02:55:13;9.40;99.90
9043;DHT22;4556;49.150;8.808;2022-08-21T02:57:41;11.60;99.90
9043;DHT22;4556;49.150;8.808;2022-08-21T03:00:09;11.80;99.90
9043;DHT22;4556;49.150;8.808;2022-08-21T03:02:37;11.70;99.90
9043;DHT22;4556;49.150;8.808;2022-08-21T03:05:07;11.50;99.90
9043;DHT22;4556;49.150;8.808;2022-08-21T03:07:35;13.50;99.90
9043;DHT22;4556;49.150;8.808;2022-08-21T03:10:03;11.60;99.90
9043;DHT22;4556;49.150;8.808;2022-08-21T03:12:30;11.50;99.90
9043;DHT22;4556;49.150;8.808;2022-08-21T03:14:57;11.50;99.90
9043;DHT22;4556;49.150;8.808;2022-08-21T03:17:25;11.50;99.90
9043;DHT22;4556;49.150;8.808;2022-08-21T03:19:53;11.70;99.90
9043;DHT22;4556;49.150;8.808;2022-08-21T03:22:21;11.60;99.90
9043;DHT22;4556;49.150;8.808;2022-08-21T03:24:48;11.60;99.90
9043;DHT22;4556;49.150;8.808;2022-08-21T03:27:17;11.60;99.90
9043;DHT22;4556;49.150;8.808;2022-08-21T03:29:44;11.40;99.90
9043;DHT22;4556;49.150;8.808;2022-08-21T03:32:11;12.60;99.90
9043;DHT22;4556;49.150;8.808;2022-08-21T03:34:39;11.30;99.90
9043;DHT22;4556;49.150;8.808;2022-08-21T03:37:07;11.30;99.90
9043;DHT22;4556;49.150;8.808;2022-08-21T03:39:37;11.70;99.90
9043;DHT22;4556;49.150;8.808;2022-08-21T03:42:05;12.40;99.90
9043;DHT22;4556;49.150;8.808;2022-08-21T03:44:32;11.60;99.90
9043;DHT22;4556;49.150;8.808;2022-08-21T03:47:00;13.70;99.90
9043;DHT22;4556;49.150;8.808;2022-08-21T03:49:27;11.30;99.90
9043;DHT22;4556;49.150;8.808;2022-08-21T03:51:55;11.20;99.90
9043;DHT22;4556;49.150;8.808;2022-08-21T03:54:22;11.20;99.90
9043;DHT22;4556;49.150;8.808;2022-08-21T03:56:51;12.40;99.90
9043;DHT22;4556;49.150;8.808;2022-08-21T03:59:18;10.60;99.90
9043;DHT22;4556;49.150;8.808;2022-08-21T04:01:59;11.20;99.90
9043;DHT22;4556;49.150;8.808;2022-08-21T04:04:28;11.60;99.90
9043;DHT22;4556;49.150;8.808;2022-08-21T04:06:55;11.30;99.90
9043;DHT22;4556;49.150;8.808;2022-08-21T04:09:23;11.20;99.90
9043;DHT22;4556;49.150;8.808;2022-08-21T04:11:52;11.50;99.90
9043;DHT22;4556;49.150;8.808;2022-08-21T04:14:19;13.70;99.90
9043;DHT22;4556;49.150;8.808;2022-08-21T04:16:47;11.20;99.90
9043;DHT22;4556;49.150;8.808;2022-08-21T04:19:14;11.80;99.90
9043;DHT22;4556;49.150;8.808;2022-08-21T04:21:41;11.40;99.90
9043;DHT22;4556;49.150;8.808;2022-08-21T04:24:09;11.20;99.90
9043;DHT22;4556;49.150;8.808;2022-08-21T04:26:37;12.90;99.90
9043;DHT22;4556;49.150;8.808;2022-08-21T04:29:06;11.10;99.90
9043;DHT22;4556;49.150;8.808;2022-08-21T04:31:33;11.30;99.90
9043;DHT22;4556;49.150;8.808;2022-08-21T04:34:02;12.80;99.90
9043;DHT22;4556;49.150;8.808;2022-08-21T04:36:30;11.20;99.90
9043;DHT22;4556;49.150;8.808;2022-08-21T04:38:57;11.10;99.90
9043;DHT22;4556;49.150;8.808;2022-08-21T04:41:25;11.10;99.90
9043;DHT22;4556;49.150;8.808;2022-08-21T04:43:52;10.30;99.90
9043;DHT22;4556;49.150;8.808;2022-08-21T04:46:22;11.30;99.90
9043;DHT22;4556;49.150;8.808;2022-08-21T04:48:49;11.10;99.90
9043;DHT22;4556;49.150;8.808;2022-08-21T04:51:18;11.10;99.90
9043;DHT22;4556;49.150;8.808;2022-08-21T04:53:49;11.20;99.90
9043;DHT22;4556;49.150;8.808;2022-08-21T04:56:21;11.10;99.90
9043;DHT22;4556;49.150;8.808;2022-08-21T04:58:51;11.20;99.90
9043;DHT22;4556;49.150;8.808;2022-08-21T05:01:22;11.10;99.90
9043;DHT22;4556;49.150;8.808;2022-08-21T05:03:52;11.80;99.90
9043;DHT22;4556;49.150;8.808;2022-08-21T05:06:21;11.20;99.90
9043;DHT22;4556;49.150;8.808;2022-08-21T05:08:49;11.30;99.90
9043;DHT22;4556;49.150;8.808;2022-08-21T05:11:17;14.60;99.90
9043;DHT22;4556;49.150;8.808;2022-08-21T05:13:45;11.40;99.90
9043;DHT22;4556;49.150;8.808;2022-08-21T05:16:13;10.70;99.90
9043;DHT22;4556;49.150;8.808;2022-08-21T05:18:44;11.60;99.90
9043;DHT22;4556;49.150;8.808;2022-08-21T05:21:11;12.20;99.90
9043;DHT22;4556;49.150;8.808;2022-08-21T05:23:38;11.80;99.90
9043;DHT22;4556;49.150;8.808;2022-08-21T05:26:05;12.00;99.90
9043;DHT22;4556;49.150;8.808;2022-08-21T05:28:32;11.90;99.90
9043;DHT22;4556;49.150;8.808;2022-08-21T05:30:59;12.20;99.90
9043;DHT22;4556;49.150;8.808;2022-08-21T05:33:26;12.10;99.90
9043;DHT22;4556;49.150;8.808;2022-08-21T05:35:56;12.20;99.90
9043;DHT22;4556;49.150;8.808;2022-08-21T05:38:23;12.30;99.90
9043;DHT22;4556;49.150;8.808;2022-08-21T05:40:52;12.50;99.90
9043;DHT22;4556;49.150;8.808;2022-08-21T05:43:20;12.60;99.90
9043;DHT22;4556;49.150;8.808;2022-08-21T05:45:47;12.70;99.90
9043;DHT22;4556;49.150;8.808;2022-08-21T05:48:15;13.20;99.90
9043;DHT22;4556;49.150;8.808;2022-08-21T05:50:43;15.10;99.90
9043;DHT22;4556;49.150;8.808;2022-08-21T05:53:13;14.60;99.90
9043;DHT22;4556;49.150;8.808;2022-08-21T05:55:41;14.10;99.90
9043;DHT22;4556;49.150;8.808;2022-08-21T05:58:08;13.10;99.90
9043;DHT22;4556;49.150;8.808;2022-08-21T06:00:35;13.30;99.90
9043;DHT22;4556;49.150;8.808;2022-08-21T06:03:02;13.80;99.90
9043;DHT22;4556;49.150;8.808;2022-08-21T06:05:30;13.70;99.90
9043;DHT22;4556;49.150;8.808;2022-08-21T06:07:59;16.00;99.90
9043;DHT22;4556;49.150;8.808;2022-08-21T06:10:30;14.00;99.90
9043;DHT22;4556;49.150;8.808;2022-08-21T06:12:57;12.40;99.90
9043;DHT22;4556;49.150;8.808;2022-08-21T06:15:24;14.50;99.90
9043;DHT22;4556;49.150;8.808;2022-08-21T06:17:52;15.10;99.90
9043;DHT22;4556;49.150;8.808;2022-08-21T06:20:20;15.10;99.90
9043;DHT22;4556;49.150;8.808;2022-08-21T06:22:47;15.40;99.90
9043;DHT22;4556;49.150;8.808;2022-08-21T06:25:14;15.60;99.90
9043;DHT22;4556;49.150;8.808;2022-08-21T06:27:43;15.90;99.90
9043;DHT22;4556;49.150;8.808;2022-08-21T06:30:10;16.00;99.90
9043;DHT22;4556;49.150;8.808;2022-08-21T06:32:38;16.20;99.90
9043;DHT22;4556;49.150;8.808;2022-08-21T06:35:06;16.40;99.90
9043;DHT22;4556;49.150;8.808;2022-08-21T06:37:33;16.50;99.90
9043;DHT22;4556;49.150;8.808;2022-08-21T06:40:00;16.70;99.90
9043;DHT22;4556;49.150;8.808;2022-08-21T06:42:39;17.00;99.90
9043;DHT22;4556;49.150;8.808;2022-08-21T06:45:08;17.10;99.90
9043;DHT22;4556;49.150;8.808;2022-08-21T06:47:35;17.30;99.90
9043;DHT22;4556;49.150;8.808;2022-08-21T06:50:03;17.60;99.90
9043;DHT22;4556;49.150;8.808;2022-08-21T06:52:33;17.80;99.90
9043;DHT22;4556;49.150;8.808;2022-08-21T06:55:01;18.00;99.90
9043;DHT22;4556;49.150;8.808;2022-08-21T06:57:28;18.30;99.90
9043;DHT22;4556;49.150;8.808;2022-08-21T06:59:55;18.60;99.90
9043;DHT22;4556;49.150;8.808;2022-08-21T07:02:23;18.80;99.90
9043;DHT22;4556;49.150;8.808;2022-08-21T07:04:50;18.90;99.90
9043;DHT22;4556;49.150;8.808;2022-08-21T07:07:17;19.40;99.90
9043;DHT22;4556;49.150;8.808;2022-08-21T07:09:45;19.20;99.90
9043;DHT22;4556;49.150;8.808;2022-08-21T07:12:12;19.30;99.90
9043;DHT22;4556;49.150;8.808;2022-08-21T07:14:39;19.60;99.90
9043;DHT22;4556;49.150;8.808;2022-08-21T07:17:06;19.80;99.90
9043;DHT22;4556;49.150;8.808;2022-08-21T07:19:35;19.90;99.90
9043;DHT22;4556;49.150;8.808;2022-08-21T07:22:02;20.40;99.90
9043;DHT22;4556;49.150;8.808;2022-08-21T07:24:30;20.30;99.90
9043;DHT22;4556;49.150;8.808;2022-08-21T07:26:57;20.30;99.90
9043;DHT22;4556;49.150;8.808;2022-08-21T07:29:25;20.60;99.90
9043;DHT22;4556;49.150;8.808;2022-08-21T07:31:52;20.60;99.90
9043;DHT22;4556;49.150;8.808;2022-08-21T07:34:19;20.80;99.90
9043;DHT22;4556;49.150;8.808;2022-08-21T07:36:48;21.00;99.90
9043;DHT22;4556;49.150;8.808;2022-08-21T07:39:16;20.90;99.90
9043;DHT22;4556;49.150;8.808;2022-08-21T07:41:43;21.00;99.90
9043;DHT22;4556;49.150;8.808;2022-08-21T07:44:10;21.30;99.90
9043;DHT22;4556;49.150;8.808;2022-08-21T07:46:37;21.40;99.90
9043;DHT22;4556;49.150;8.808;2022-08-21T07:49:04;21.70;99.90
9043;DHT22;4556;49.150;8.808;2022-08-21T07:51:32;21.80;99.90
9043;DHT22;4556;49.150;8.808;2022-08-21T07:54:01;21.00;99.90
9043;DHT22;4556;49.150;8.808;2022-08-21T07:56:30;22.10;99.90
9043;DHT22;4556;49.150;8.808;2022-08-21T07:58:57;22.40;99.90
9043;DHT22;4556;49.150;8.808;2022-08-21T08:01:25;22.30;99.90
9043;DHT22;4556;49.150;8.808;2022-08-21T08:03:52;22.20;99.90
9043;DHT22;4556;49.150;8.808;2022-08-21T08:06:19;22.40;99.90
9043;DHT22;4556;49.150;8.808;2022-08-21T08:08:46;22.50;99.90
9043;DHT22;4556;49.150;8.808;2022-08-21T08:11:15;22.60;99.90
9043;DHT22;4556;49.150;8.808;2022-08-21T08:13:44;22.70;99.90
9043;DHT22;4556;49.150;8.808;2022-08-21T08:16:11;22.70;99.90
9043;DHT22;4556;49.150;8.808;2022-08-21T08:18:40;22.90;99.90
9043;DHT22;4556;49.150;8.808;2022-08-21T08:21:08;23.20;99.90
9043;DHT22;4556;49.150;8.808;2022-08-21T08:23:36;23.20;99.90
9043;DHT22;4556;49.150;8.808;2022-08-21T08:26:03;23.30;99.90
9043;DHT22;4556;49.150;8.808;2022-08-21T08:28:33;23.30;99.90
9043;DHT22;4556;49.150;8.808;2022-08-21T08:31:01;23.60;99.90
9043;DHT22;4556;49.150;8.808;2022-08-21T08:33:28;23.70;99.90
9043;DHT22;4556;49.150;8.808;2022-08-21T08:35:56;23.60;99.90
9043;DHT22;4556;49.150;8.808;2022-08-21T08:38:25;23.70;99.90
9043;DHT22;4556;49.150;8.808;2022-08-21T08:40:58;23.70;99.90
9043;DHT22;4556;49.150;8.808;2022-08-21T08:43:27;23.80;99.90
9043;DHT22;4556;49.150;8.808;2022-08-21T08:45:59;24.00;99.90
9043;DHT22;4556;49.150;8.808;2022-08-21T08:48:41;24.20;99.90
9043;DHT22;4556;49.150;8.808;2022-08-21T08:51:16;24.10;99.90
9043;DHT22;4556;49.150;8.808;2022-08-21T08:53:49;24.20;99.90
9043;DHT22;4556;49.150;8.808;2022-08-21T08:56:21;24.30;99.90
9043;DHT22;4556;49.150;8.808;2022-08-21T08:58:50;24.40;99.90
9043;DHT22;4556;49.150;8.808;2022-08-21T09:01:23;24.40;99.90
9043;DHT22;4556;49.150;8.808;2022-08-21T09:03:50;24.50;99.90
9043;DHT22;4556;49.150;8.808;2022-08-21T09:06:37;24.70;99.90
9043;DHT22;4556;49.150;8.808;2022-08-21T09:09:19;24.70;99.90
9043;DHT22;4556;49.150;8.808;2022-08-21T09:11:53;24.70;99.90
9043;DHT22;4556;49.150;8.808;2022-08-21T09:14:30;24.80;99.90
9043;DHT22;4556;49.150;8.808;2022-08-21T09:17:10;24.90;99.90
9043;DHT22;4556;49.150;8.808;2022-08-21T09:19:55;25.00;99.90
9043;DHT22;4556;49.150;8.808;2022-08-21T09:22:32;25.30;99.90
9043;DHT22;4556;49.150;8.808;2022-08-21T09:25:11;25.30;99.90
9043;DHT22;4556;49.150;8.808;2022-08-21T09:27:40;25.40;99.90
9043;DHT22;4556;49.150;8.808;2022-08-21T09:30:09;25.70;99.90
9043;DHT22;4556;49.150;8.808;2022-08-21T09:32:39;23.70;99.90
9043;DHT22;4556;49.150;8.808;2022-08-21T09:35:08;25.70;99.90
9043;DHT22;4556;49.150;8.808;2022-08-21T09:37:47;25.90;99.90
9043;DHT22;4556;49.150;8.808;2022-08-21T09:40:27;25.90;99.90
9043;DHT22;4556;49.150;8.808;2022-08-21T09:42:58;25.80;99.90
9043;DHT22;4556;49.150;8.808;2022-08-21T09:45:25;25.80;99.90
9043;DHT22;4556;49.150;8.808;2022-08-21T09:47:54;25.90;99.90
9043;DHT22;4556;49.150;8.808;2022-08-21T09:50:24;26.10;99.90
9043;DHT22;4556;49.150;8.808;2022-08-21T09:52:54;26.20;99.90
9043;DHT22;4556;49.150;8.808;2022-08-21T09:55:31;26.00;99.90
9043;DHT22;4556;49.150;8.808;2022-08-21T09:58:18;26.10;99.90
9043;DHT22;4556;49.150;8.808;2022-08-21T10:00:56;26.10;99.90
9043;DHT22;4556;49.150;8.808;2022-08-21T10:03:25;26.30;99.90
9043;DHT22;4556;49.150;8.808;2022-08-21T10:05:56;24.60;99.90
9043;DHT22;4556;49.150;8.808;2022-08-21T10:08:28;26.10;99.90
9043;DHT22;4556;49.150;8.808;2022-08-21T10:11:01;26.40;99.90
9043;DHT22;4556;49.150;8.808;2022-08-21T10:13:38;25.80;99.90
9043;DHT22;4556;49.150;8.808;2022-08-21T10:16:17;26.20;99.90
9043;DHT22;4556;49.150;8.808;2022-08-21T10:19:02;26.20;99.90
9043;DHT22;4556;49.150;8.808;2022-08-21T10:21:36;26.30;99.90
9043;DHT22;4556;49.150;8.808;2022-08-21T10:24:11;26.20;99.90
9043;DHT22;4556;49.150;8.808;2022-08-21T10:26:50;26.50;99.90
9043;DHT22;4556;49.150;8.808;2022-08-21T10:29:36;26.60;99.90
9043;DHT22;4556;49.150;8.808;2022-08-21T10:32:14;26.50;99.90
9043;DHT22;4556;49.150;8.808;2022-08-21T10:34:50;26.70;99.90
9043;DHT22;4556;49.150;8.808;2022-08-21T10:37:26;26.60;99.90
9043;DHT22;4556;49.150;8.808;2022-08-21T10:40:02;26.60;99.90
9043;DHT22;4556;49.150;8.808;2022-08-21T10:42:38;26.40;99.90
9043;DHT22;4556;49.150;8.808;2022-08-21T10:45:14;26.40;99.90
9043;DHT22;4556;49.150;8.808;2022-08-21T10:47:46;26.60;99.90
9043;DHT22;4556;49.150;8.808;2022-08-21T10:50:25;26.50;99.90
9043;DHT22;4556;49.150;8.808;2022-08-21T10:53:05;26.60;99.60
9043;DHT22;4556;49.150;8.808;2022-08-21T10:55:41;26.50;99.90
9043;DHT22;4556;49.150;8.808;2022-08-21T10:58:11;24.80;99.80
9043;DHT22;4556;49.150;8.808;2022-08-21T11:00:43;26.50;99.90
9043;DHT22;4556;49.150;8.808;2022-08-21T11:03:16;26.70;99.50
9043;DHT22;4556;49.150;8.808;2022-08-21T11:05:49;26.60;99.70
9043;DHT22;4556;49.150;8.808;2022-08-21T11:08:21;26.40;99.90
9043;DHT22;4556;49.150;8.808;2022-08-21T11:10:52;26.50;99.70
9043;DHT22;4556;49.150;8.808;2022-08-21T11:13:26;26.60;99.60
9043;DHT22;4556;49.150;8.808;2022-08-21T11:16:00;26.60;99.70
9043;DHT22;4556;49.150;8.808;2022-08-21T11:18:32;26.70;99.40
9043;DHT22;4556;49.150;8.808;2022-08-21T11:21:09;26.60;99.90
9043;DHT22;4556;49.150;8.808;2022-08-21T11:23:45;26.70;99.50
9043;DHT22;4556;49.150;8.808;2022-08-21T11:26:17;26.80;99.40
9043;DHT22;4556;49.150;8.808;2022-08-21T11:28:50;26.90;99.10
9043;DHT22;4556;49.150;8.808;2022-08-21T11:31:33;27.00;98.00
9043;DHT22;4556;49.150;8.808;2022-08-21T11:34:14;27.10;98.90
9043;DHT22;4556;49.150;8.808;2022-08-21T11:36:51;27.10;99.00
9043;DHT22;4556;49.150;8.808;2022-08-21T11:39:26;27.20;98.10
9043;DHT22;4556;49.150;8.808;2022-08-21T11:42:04;27.20;98.80
9043;DHT22;4556;49.150;8.808;2022-08-21T11:44:44;27.10;98.80
9043;DHT22;4556;49.150;8.808;2022-08-21T11:47:23;27.00;98.10
9043;DHT22;4556;49.150;8.808;2022-08-21T11:50:03;26.90;98.50
9043;DHT22;4556;49.150;8.808;2022-08-21T11:52:38;27.10;99.00
9043;DHT22;4556;49.150;8.808;2022-08-21T11:55:12;27.10;98.90
9043;DHT22;4556;49.150;8.808;2022-08-21T11:57:46;27.10;98.70
9043;DHT22;4556;49.150;8.808;2022-08-21T12:00:20;28.00;97.90
9043;DHT22;4556;49.150;8.808;2022-08-21T12:02:51;27.10;97.70
9043;DHT22;4556;49.150;8.808;2022-08-21T12:05:26;27.20;97.90
9043;DHT22;4556;49.150;8.808;2022-08-21T12:08:04;27.20;97.20
9043;DHT22;4556;49.150;8.808;2022-08-21T12:10:35;27.30;97.50
9043;DHT22;4556;49.150;8.808;2022-08-21T12:13:11;27.20;97.50
9043;DHT22;4556;49.150;8.808;2022-08-21T12:15:40;27.30;97.50
9043;DHT22;4556;49.150;8.808;2022-08-21T12:18:21;27.30;96.50
9043;DHT22;4556;49.150;8.808;2022-08-21T12:21:16;27.40;96.50
9043;DHT22;4556;49.150;8.808;2022-08-21T12:23:48;27.50;96.90
9043;DHT22;4556;49.150;8.808;2022-08-21T12:26:24;27.60;96.70
9043;DHT22;4556;49.150;8.808;2022-08-21T12:29:07;27.50;94.90
9043;DHT22;4556;49.150;8.808;2022-08-21T12:31:53;27.50;96.50
9043;DHT22;4556;49.150;8.808;2022-08-21T12:34:24;27.40;95.70
9043;DHT22;4556;49.150;8.808;2022-08-21T12:36:56;28.90;97.00
9043;DHT22;4556;49.150;8.808;2022-08-21T12:39:28;27.40;96.30
9043;DHT22;4556;49.150;8.808;2022-08-21T12:42:03;27.60;97.80
9043;DHT22;4556;49.150;8.808;2022-08-21T12:44:37;27.60;96.50
9043;DHT22;4556;49.150;8.808;2022-08-21T12:47:12;27.80;96.60
9043;DHT22;4556;49.150;8.808;2022-08-21T12:49:47;27.60;95.50
9043;DHT22;4556;49.150;8.808;2022-08-21T12:52:20;27.50;94.60
9043;DHT22;4556;49.150;8.808;2022-08-21T12:54:49;27.50;95.70
9043;DHT22;4556;49.150;8.808;2022-08-21T12:57:21;27.60;95.20
9043;DHT22;4556;49.150;8.808;2022-08-21T12:59:56;27.70;94.00
9043;DHT22;4556;49.150;8.808;2022-08-21T13:02:28;27.70;94.70
9043;DHT22;4556;49.150;8.808;2022-08-21T13:04:57;27.70;94.50
9043;DHT22;4556;49.150;8.808;2022-08-21T13:07:28;27.60;95.50
9043;DHT22;4556;49.150;8.808;2022-08-21T13:10:00;27.70;95.30
9043;DHT22;4556;49.150;8.808;2022-08-21T13:12:29;27.80;94.30
9043;DHT22;4556;49.150;8.808;2022-08-21T13:14:58;27.60;95.10
9043;DHT22;4556;49.150;8.808;2022-08-21T13:17:27;27.60;94.20
9043;DHT22;4556;49.150;8.808;2022-08-21T13:19:59;27.60;94.80
9043;DHT22;4556;49.150;8.808;2022-08-21T13:22:28;27.60;94.40
9043;DHT22;4556;49.150;8.808;2022-08-21T13:24:55;27.60;94.20
9043;DHT22;4556;49.150;8.808;2022-08-21T13:27:30;27.50;95.00
9043;DHT22;4556;49.150;8.808;2022-08-21T13:30:07;27.60;93.80
9043;DHT22;4556;49.150;8.808;2022-08-21T13:32:39;26.10;91.70
9043;DHT22;4556;49.150;8.808;2022-08-21T13:35:13;27.60;93.60
9043;DHT22;4556;49.150;8.808;2022-08-21T13:37:41;27.60;92.10
9043;DHT22;4556;49.150;8.808;2022-08-21T13:40:11;27.40;93.40
9043;DHT22;4556;49.150;8.808;2022-08-21T13:42:43;27.40;92.40
9043;DHT22;4556;49.150;8.808;2022-08-21T13:45:14;27.40;93.20
9043;DHT22;4556;49.150;8.808;2022-08-21T13:47:43;27.50;94.80
9043;DHT22;4556;49.150;8.808;2022-08-21T13:50:14;27.50;94.40
9043;DHT22;4556;49.150;8.808;2022-08-21T13:52:56;27.40;94.40
9043;DHT22;4556;49.150;8.808;2022-08-21T13:55:24;27.10;93.00
9043;DHT22;4556;49.150;8.808;2022-08-21T13:58:01;27.10;94.30
9043;DHT22;4556;49.150;8.808;2022-08-21T14:00:31;27.20;94.00
9043;DHT22;4556;49.150;8.808;2022-08-21T14:03:04;27.50;93.80
9043;DHT22;4556;49.150;8.808;2022-08-21T14:05:36;27.40;92.90
9043;DHT22;4556;49.150;8.808;2022-08-21T14:08:07;27.30;93.10
9043;DHT22;4556;49.150;8.808;2022-08-21T14:10:37;27.00;94.20
9043;DHT22;4556;49.150;8.808;2022-08-21T14:13:29;27.20;94.30
9043;DHT22;4556;49.150;8.808;2022-08-21T14:16:01;27.40;93.80
9043;DHT22;4556;49.150;8.808;2022-08-21T14:18:30;27.40;93.60
9043;DHT22;4556;49.150;8.808;2022-08-21T14:21:04;27.30;92.30
9043;DHT22;4556;49.150;8.808;2022-08-21T14:23:32;27.10;93.10
9043;DHT22;4556;49.150;8.808;2022-08-21T14:26:00;27.20;94.60
9043;DHT22;4556;49.150;8.808;2022-08-21T14:28:31;27.30;92.80
9043;DHT22;4556;49.150;8.808;2022-08-21T14:31:11;27.30;93.50
9043;DHT22;4556;49.150;8.808;2022-08-21T14:33:40;27.30;92.70
9043;DHT22;4556;49.150;8.808;2022-08-21T14:36:07;27.20;92.50
9043;DHT22;4556;49.150;8.808;2022-08-21T14:38:37;27.20;93.10
9043;DHT22;4556;49.150;8.808;2022-08-21T14:41:10;27.30;91.60
9043;DHT22;4556;49.150;8.808;2022-08-21T14:43:43;27.20;92.80
9043;DHT22;4556;49.150;8.808;2022-08-21T14:46:11;27.20;92.90
9043;DHT22;4556;49.150;8.808;2022-08-21T14:48:38;27.20;92.60
9043;DHT22;4556;49.150;8.808;2022-08-21T14:51:05;27.20;93.90
9043;DHT22;4556;49.150;8.808;2022-08-21T14:53:32;27.20;92.90
9043;DHT22;4556;49.150;8.808;2022-08-21T14:56:01;27.20;91.50
9043;DHT22;4556;49.150;8.808;2022-08-21T14:58:32;27.30;91.80
9043;DHT22;4556;49.150;8.808;2022-08-21T15:01:00;27.20;90.70
9043;DHT22;4556;49.150;8.808;2022-08-21T15:03:29;27.10;91.40
9043;DHT22;4556;49.150;8.808;2022-08-21T15:05:57;27.00;90.70
9043;DHT22;4556;49.150;8.808;2022-08-21T15:08:24;26.90;90.60
9043;DHT22;4556;49.150;8.808;2022-08-21T15:10:51;26.80;92.00
9043;DHT22;4556;49.150;8.808;2022-08-21T15:13:20;26.80;93.10
9043;DHT22;4556;49.150;8.808;2022-08-21T15:15:49;26.70;92.10
9043;DHT22;4556;49.150;8.808;2022-08-21T15:18:19;26.70;92.30
9043;DHT22;4556;49.150;8.808;2022-08-21T15:20:47;26.60;92.50
9043;DHT22;4556;49.150;8.808;2022-08-21T15:23:14;26.60;90.70
9043;DHT22;4556;49.150;8.808;2022-08-21T15:25:42;26.70;90.80
9043;DHT22;4556;49.150;8.808;2022-08-21T15:28:10;26.60;89.00
9043;DHT22;4556;49.150;8.808;2022-08-21T15:30:39;26.40;90.80
9043;DHT22;4556;49.150;8.808;2022-08-21T15:33:07;26.40;90.20
9043;DHT22;4556;49.150;8.808;2022-08-21T15:35:36;27.10;90.20
9043;DHT22;4556;49.150;8.808;2022-08-21T15:38:04;26.50;90.00
9043;DHT22;4556;49.150;8.808;2022-08-21T15:40:33;26.40;90.20
9043;DHT22;4556;49.150;8.808;2022-08-21T15:43:02;26.40;87.30
9043;DHT22;4556;49.150;8.808;2022-08-21T15:45:30;26.40;87.80
9043;DHT22;4556;49.150;8.808;2022-08-21T15:47:58;24.90;89.20
9043;DHT22;4556;49.150;8.808;2022-08-21T15:50:26;26.30;90.40
9043;DHT22;4556;49.150;8.808;2022-08-21T15:52:57;26.30;90.30
9043;DHT22;4556;49.150;8.808;2022-08-21T15:55:24;26.30;88.50
9043;DHT22;4556;49.150;8.808;2022-08-21T15:57:52;26.40;84.90
9043;DHT22;4556;49.150;8.808;2022-08-21T16:00:23;26.30;82.70
9043;DHT22;4556;49.150;8.808;2022-08-21T16:02:53;26.30;82.50
9043;DHT22;4556;49.150;8.808;2022-08-21T16:05:21;26.50;85.40
9043;DHT22;4556;49.150;8.808;2022-08-21T16:07:50;26.40;82.00
9043;DHT22;4556;49.150;8.808;2022-08-21T16:10:21;26.40;82.70
9043;DHT22;4556;49.150;8.808;2022-08-21T16:12:53;26.30;84.20
9043;DHT22;4556;49.150;8.808;2022-08-21T16:15:21;26.30;84.10
9043;DHT22;4556;49.150;8.808;2022-08-21T16:17:49;26.20;83.00
9043;DHT22;4556;49.150;8.808;2022-08-21T16:20:20;26.30;82.80
9043;DHT22;4556;49.150;8.808;2022-08-21T16:22:47;26.30;82.70